Strona główna
METAR-TAF:

METAR-TAF

Lotnisko :

Port lotniczy Glasgow-Prestwick

Glasgow-Prestwick, Szkocja

Szerokość geograficzna: 55-30N, Długość geograficzna: 004-35W, wysokość: 20 m

Aktualna obserwacja pogody

Raport powstał 25 minut temu, godzina 18:50 UTC
Wiatr 12 kt od południowy zachód
Temperatura 14°C
Wilgotność 88%
Ciśnienie 1010 hPa
Widzialność 10 km lub więcej
Mało chmury na wysokości 1300 ft
Rozproszone chmury na wysokości 2400 ft
słaby przelotny opad deszczu

METAR: EGPK 191850Z 23012KT 9999 -SHRA FEW013 SCT024 14/12 Q1010

czas: 20:15 (19:15 UTC)

Prognoza

Raport powstał 2 godziny i 20 minut temu, godzina 16:55 UTC
Prognoza ważna od 19 godzina 18 UTC do 20 godzina 18 UTC
Wiatr 9 kt od zachodnio-południowy zachód
Widzialność 10 km lub więcej
Rozproszone chmury na wysokości 2500 ft
Przejściowo
od 19 godzina 18 UTC do 20 godzina 12 UTC
Widzialność: 7000 m
Przerywane chmury na wysokości 1400 ft
przelotny opad deszczu

TAF: EGPK 191655Z 1918/2018 24009KT 9999 SCT025 TEMPO 1918/2012 7000 SHRA BKN014

Obserwacja i prognoza pogody dla ponad 4000 lotnisk (raport METAR i TAF).

Dostępne stacje oznaczono żółtymi i czerwonymi punktami na mapie.

Najedź kursorem aby zobaczyć nazwę stacji.

Kliknij aby zobaczyć obserwacje i prognozy pogody.

Aby zmienić mapę: kliknij na zielony przycisk z czarnym krzyżykiem, aby powiększyć; na zielony przycisk z myślnikiem, aby pomniejszyć; na zielone strzałki, aby przejść do map sąsiednich.


METAR-TAF: